Vega Nikolas — A8QD2 — position and weather

sailwx.info

Track history (hours):
 
Tides and Currents Weather Stations Pressure Air Temp Water Temp Dewpoint Dewpoint Depression Visibility Wind Speed Wind Dir Waves Ship Positions

Vega Nikolas

Last reported at 2014-Oct-30 00:17 UTC. Time now 2014-Oct-31 23:50 UTC.
Position N 40°32' W 074°01'.

Length 139 m; draft 8.3 m.

Type: Ship (hazmat cat A). MMSI: 636091613.

Date/timePositionNaut miles runAvg speedWind from/ knotsBaromVisibWave heightAir tempDewpointWater temp
2014-Oct-30 00:17N 40°32' W 074°01'912.1
2014-Oct-29 23:33N 40°41' W 074°02'1 1.0
2014-Oct-29 22:30N 40°41' W 074°01'0 0.0
2014-Oct-29 21:30N 40°41' W 074°01'0 0.0
2014-Oct-29 20:28N 40°41' W 074°01'0 0.0
2014-Oct-29 19:30N 40°41' W 074°01'0 0.0
2014-Oct-29 18:30N 40°41' W 074°01'0 0.0
2014-Oct-29 17:30N 40°41' W 074°01'0 0.0
2014-Oct-29 16:28N 40°41' W 074°01'0 0.0
2014-Oct-29 15:30N 40°41' W 074°01'0 0.1
2014-Oct-29 14:30N 40°41' W 074°01'0 0.0
2014-Oct-29 13:30N 40°41' W 074°01'0 0.0
2014-Oct-29 12:30N 40°41' W 074°01'0 0.0
2014-Oct-29 11:30N 40°41' W 074°01'0 0.0
2014-Oct-29 10:30N 40°41' W 074°01'3 2.8
2014-Oct-29 09:33N 40°39' W 074°03'1110.5
2014-Oct-29 08:33N 40°30' W 073°57'1212.0
2014-Oct-29 07:34N 40°24' W 073°43'1413.0
2014-Oct-29 06:27N 40°15' W 073°28'1313.2
2014-Oct-29 05:29N 40°07' W 073°15'1313.3
2014-Oct-29 04:31N 39°57' W 073°05'1313.9
2014-Oct-29 03:33N 39°46' W 072°55'1413.7
2014-Oct-29 02:33N 39°35' W 072°45'1513.6
2014-Oct-29 01:29N 39°22' W 072°35'1313.8
2014-Oct-29 00:33N 39°11' W 072°26'1413.7
2014-Oct-28 23:33N 38°60' W 072°17'1413.7
2014-Oct-28 22:33N 38°48' W 072°08'1414.0
2014-Oct-28 21:33N 38°35' W 072°00'1413.9
2014-Oct-28 20:34N 38°23' W 071°52'  
Track history (hours):
 
Tides and Currents Weather Stations Pressure Air Temp Water Temp Dewpoint Dewpoint Depression Visibility Wind Speed Wind Dir Waves Ship Positions

Vega Nikolas

Last reported at 2014-Oct-30 00:17 UTC. Time now 2014-Oct-31 23:50 UTC.
Position N 40°32' W 074°01'.

Length 139 m; draft 8.3 m.

Type: Ship (hazmat cat A). MMSI: 636091613.

Date/timePositionNaut miles runAvg speedWind from/ knotsBaromVisibWave heightAir tempDewpointWater temp
2014-Oct-30 00:17N 40°32' W 074°01'912.1
2014-Oct-29 23:33N 40°41' W 074°02'1 1.0
2014-Oct-29 22:30N 40°41' W 074°01'0 0.0
2014-Oct-29 21:30N 40°41' W 074°01'0 0.0
2014-Oct-29 20:28N 40°41' W 074°01'0 0.0
2014-Oct-29 19:30N 40°41' W 074°01'0 0.0
2014-Oct-29 18:30N 40°41' W 074°01'0 0.0
2014-Oct-29 17:30N 40°41' W 074°01'0 0.0
2014-Oct-29 16:28N 40°41' W 074°01'0 0.0
2014-Oct-29 15:30N 40°41' W 074°01'0 0.1
2014-Oct-29 14:30N 40°41' W 074°01'0 0.0
2014-Oct-29 13:30N 40°41' W 074°01'0 0.0
2014-Oct-29 12:30N 40°41' W 074°01'0 0.0
2014-Oct-29 11:30N 40°41' W 074°01'0 0.0
2014-Oct-29 10:30N 40°41' W 074°01'3 2.8
2014-Oct-29 09:33N 40°39' W 074°03'1110.5
2014-Oct-29 08:33N 40°30' W 073°57'1212.0
2014-Oct-29 07:34N 40°24' W 073°43'1413.0
2014-Oct-29 06:27N 40°15' W 073°28'1313.2
2014-Oct-29 05:29N 40°07' W 073°15'1313.3
2014-Oct-29 04:31N 39°57' W 073°05'1313.9
2014-Oct-29 03:33N 39°46' W 072°55'1413.7
2014-Oct-29 02:33N 39°35' W 072°45'1513.6
2014-Oct-29 01:29N 39°22' W 072°35'1313.8
2014-Oct-29 00:33N 39°11' W 072°26'1413.7
2014-Oct-28 23:33N 38°60' W 072°17'1413.7
2014-Oct-28 22:33N 38°48' W 072°08'1414.0
2014-Oct-28 21:33N 38°35' W 072°00'1413.9
2014-Oct-28 20:34N 38°23' W 071°52'  

Dump ship's entire track history